createdAt,value
2019-04-11T00:03:05.049Z,5.83
2019-04-11T00:08:01.830Z,5.10
2019-04-11T00:12:59.069Z,6.80
2019-04-11T00:17:55.098Z,6.00
2019-04-11T00:22:51.536Z,4.63
2019-04-11T00:27:48.969Z,4.77
2019-04-11T00:32:45.538Z,4.97
2019-04-11T00:37:41.503Z,10.77
2019-04-11T00:42:37.434Z,7.87
2019-04-11T00:47:33.373Z,5.50
2019-04-11T00:52:29.501Z,5.23
2019-04-11T00:57:25.614Z,8.73
2019-04-11T01:02:21.542Z,5.20
2019-04-11T01:07:18.525Z,5.17
2019-04-11T01:12:14.659Z,7.03
2019-04-11T01:17:10.586Z,6.37
2019-04-11T01:22:07.651Z,5.57
2019-04-11T01:27:04.143Z,5.30
2019-04-11T01:32:04.909Z,8.33
2019-04-11T01:37:01.671Z,6.23
2019-04-11T01:41:58.682Z,4.80
2019-04-11T01:46:54.786Z,4.63
2019-04-11T01:51:50.834Z,5.27
2019-04-11T01:56:47.517Z,11.00
2019-04-11T02:01:45.594Z,8.53
2019-04-11T02:06:42.425Z,7.67
2019-04-11T02:11:39.446Z,4.80
2019-04-11T02:16:35.561Z,9.47
2019-04-11T02:21:31.776Z,5.63
2019-04-11T02:26:33.548Z,7.83
2019-04-11T02:31:30.564Z,7.10
2019-04-11T02:36:27.354Z,4.87
2019-04-11T02:41:25.472Z,5.80
2019-04-11T02:46:31.933Z,8.73
2019-04-11T02:51:20.585Z,7.40
2019-04-11T02:56:17.405Z,9.43
2019-04-11T03:01:15.472Z,7.33
2019-04-11T03:06:11.740Z,5.83
2019-04-11T03:11:10.693Z,9.53
2019-04-11T03:16:23.912Z,6.37
2019-04-11T03:21:10.319Z,11.70
2019-04-11T03:26:03.183Z,9.23
2019-04-11T03:31:37.496Z,6.47
2019-04-11T03:36:53.929Z,10.77
2019-04-11T03:41:12.829Z,11.03
2019-04-11T03:46:16.010Z,8.60
2019-04-11T03:50:55.498Z,6.80
2019-04-11T03:55:53.705Z,8.00
2019-04-11T04:00:52.867Z,12.00
2019-04-11T04:05:48.791Z,10.97
2019-04-11T04:11:05.637Z,14.57
2019-04-11T04:16:18.755Z,12.43
2019-04-11T04:21:18.891Z,8.93
2019-04-11T04:26:16.823Z,13.90
2019-04-11T04:31:13.985Z,12.60
2019-04-11T04:36:11.289Z,6.30
2019-04-11T04:41:25.210Z,9.97
2019-04-11T04:46:23.720Z,8.40
2019-04-11T04:51:09.073Z,5.60
2019-04-11T04:56:04.153Z,16.47
2019-04-11T05:01:01.413Z,7.80
2019-04-11T05:05:58.435Z,14.60
2019-04-11T05:10:55.776Z,6.07
2019-04-11T05:16:04.465Z,18.60
2019-04-11T05:20:49.709Z,9.60
2019-04-11T05:25:46.619Z,10.60
2019-04-11T05:30:42.647Z,13.10
2019-04-11T05:35:39.559Z,11.03
2019-04-11T05:40:35.594Z,10.07
2019-04-11T05:45:31.790Z,14.10
2019-04-11T05:50:29.062Z,8.80
2019-04-11T05:55:26.454Z,15.30
2019-04-11T06:00:41.013Z,15.13
2019-04-11T06:05:43.178Z,12.63
2019-04-11T06:10:57.999Z,11.53
2019-04-11T06:16:01.345Z,15.73
2019-04-11T06:21:01.925Z,14.63
2019-04-11T06:31:24.819Z,8.83
2019-04-11T06:36:26.639Z,8.80
2019-04-11T06:41:27.627Z,5.53
2019-04-11T06:46:50.477Z,7.77
2019-04-11T06:51:41.624Z,7.60
2019-04-11T06:56:39.461Z,12.27
2019-04-11T07:01:36.239Z,9.70
2019-04-11T07:06:37.750Z,11.50
2019-04-11T07:11:48.497Z,11.93
2019-04-11T07:17:07.143Z,9.97
2019-04-11T07:22:03.066Z,10.27
2019-04-11T07:27:01.001Z,11.50
2019-04-11T07:32:07.666Z,9.60
2019-04-11T07:37:23.532Z,13.23
2019-04-11T07:42:25.927Z,9.70
2019-04-11T07:47:26.389Z,15.27
2019-04-11T07:52:22.166Z,13.93
2019-04-11T07:57:36.280Z,14.00
2019-04-11T08:02:53.186Z,9.60
2019-04-11T08:08:00.025Z,14.87
2019-04-11T08:12:58.258Z,11.13
2019-04-11T08:17:54.377Z,12.20
2019-04-11T08:22:52.343Z,13.33
2019-04-11T08:28:00.064Z,15.47
2019-04-11T08:32:55.744Z,15.63
2019-04-11T08:38:12.021Z,10.77
2019-04-11T08:43:10.916Z,15.43
2019-04-11T08:48:08.855Z,8.40
2019-04-11T08:53:16.519Z,15.00
2019-04-11T08:58:16.170Z,15.33
2019-04-11T09:03:33.567Z,12.33
2019-04-11T09:08:54.410Z,12.00
2019-04-11T09:14:11.935Z,10.33
2019-04-11T09:19:14.653Z,13.73
2019-04-11T09:24:24.798Z,12.97
2019-04-11T09:29:22.604Z,11.70
2019-04-11T09:34:23.863Z,10.93
2019-04-11T09:44:47.023Z,12.90
2019-04-11T09:49:53.846Z,13.07
2019-04-11T09:54:54.821Z,14.07
2019-04-11T10:00:05.823Z,13.67
2019-04-11T10:05:05.279Z,12.80
2019-04-11T10:10:04.544Z,12.70
2019-04-11T10:15:03.144Z,11.30
2019-04-11T10:20:00.748Z,19.70
2019-04-11T10:25:05.212Z,11.00
2019-04-11T10:30:06.563Z,12.03
2019-04-11T10:35:22.074Z,9.83
2019-04-11T10:40:32.275Z,15.43
2019-04-11T10:45:31.197Z,8.90
2019-04-11T10:50:46.623Z,9.50
2019-04-11T10:56:02.543Z,8.73
2019-04-11T11:01:00.357Z,11.83
2019-04-11T11:06:00.732Z,11.90
2019-04-11T11:10:59.713Z,18.10
2019-04-11T11:15:56.054Z,10.13
2019-04-11T11:20:56.752Z,8.40
2019-04-11T11:26:10.954Z,14.50
2019-04-11T11:31:08.802Z,15.63
2019-04-11T11:36:23.821Z,12.30
2019-04-11T11:41:38.655Z,10.23
2019-04-11T11:46:42.643Z,9.53
2019-04-11T11:51:58.436Z,10.53
2019-04-11T11:56:56.152Z,9.53
2019-04-11T12:01:54.410Z,7.63
2019-04-11T12:06:55.939Z,10.00
2019-04-11T12:12:02.448Z,9.80
2019-04-11T12:17:05.189Z,8.77
2019-04-11T12:22:02.241Z,10.60
2019-04-11T12:27:00.506Z,15.90
2019-04-11T12:32:01.137Z,9.43
2019-04-11T12:36:58.421Z,7.83
2019-04-11T12:41:56.423Z,10.17
2019-04-11T12:47:00.306Z,9.07
2019-04-11T12:52:15.001Z,13.20
2019-04-11T12:57:29.099Z,9.17
2019-04-11T13:02:46.283Z,8.27
2019-04-11T13:08:00.679Z,10.70
2019-04-11T13:13:15.606Z,14.40
2019-04-11T13:18:30.323Z,8.00
2019-04-11T13:23:50.373Z,11.23
2019-04-11T13:29:04.683Z,10.80
2019-04-11T13:34:02.521Z,8.10
2019-04-11T13:39:02.363Z,9.67
2019-04-11T13:43:56.871Z,9.20
2019-04-11T13:49:12.986Z,6.47
2019-04-11T13:54:24.911Z,8.20
2019-04-11T13:59:25.753Z,12.23
2019-04-11T14:04:29.654Z,6.00
2019-04-11T14:09:31.304Z,7.53
2019-04-11T14:14:27.546Z,9.57
2019-04-11T14:19:34.238Z,8.63
2019-04-11T14:24:32.623Z,8.10
2019-04-11T14:29:30.442Z,12.63
2019-04-11T14:34:29.343Z,7.10
2019-04-11T14:39:27.383Z,13.27
2019-04-11T14:44:25.221Z,8.00
2019-04-11T14:49:21.148Z,14.93
2019-04-11T14:54:23.702Z,12.13
2019-04-11T14:59:27.627Z,8.03
2019-04-11T15:04:43.646Z,7.30
2019-04-11T15:09:46.773Z,6.83
2019-04-11T15:14:47.506Z,7.83
2019-04-11T15:19:44.900Z,9.93
2019-04-11T15:24:43.405Z,7.10
2019-04-11T15:29:39.306Z,10.87
2019-04-11T15:34:42.955Z,8.30
2019-04-11T15:39:44.610Z,9.83
2019-04-11T15:44:48.253Z,5.90
2019-04-11T15:50:03.096Z,6.80
2019-04-11T15:55:19.321Z,9.83
2019-04-11T16:00:17.463Z,7.20
2019-04-11T16:05:18.038Z,7.13
2019-04-11T16:10:14.969Z,5.77
2019-04-11T16:15:12.812Z,4.97
2019-04-11T16:20:10.046Z,5.47
2019-04-11T16:25:11.469Z,5.67
2019-04-11T16:30:10.219Z,5.90
2019-04-11T16:35:11.991Z,5.20
2019-04-11T16:40:26.457Z,7.97
2019-04-11T16:45:39.410Z,5.47
2019-04-11T16:50:35.386Z,7.73
2019-04-11T16:55:32.117Z,5.90
2019-04-11T17:00:28.266Z,7.13
2019-04-11T17:05:26.802Z,5.30
2019-04-11T17:10:41.011Z,7.10
2019-04-11T17:15:37.100Z,5.30
2019-04-11T17:20:35.687Z,10.10
2019-04-11T17:25:30.862Z,8.10
2019-04-11T17:30:26.790Z,6.70
2019-04-11T17:35:22.732Z,5.50
2019-04-11T17:40:18.731Z,5.63
2019-04-11T17:45:14.668Z,8.00
2019-04-11T17:50:10.601Z,5.70
2019-04-11T17:55:07.045Z,6.87
2019-04-11T18:00:06.874Z,6.03
2019-04-11T18:05:04.412Z,5.70
2019-04-11T18:10:00.342Z,12.47
2019-04-11T18:14:56.270Z,4.13
2019-04-11T18:19:52.215Z,5.03
2019-04-11T18:24:54.099Z,4.80
2019-04-11T18:29:52.584Z,4.27
2019-04-11T18:34:47.865Z,6.03
2019-04-11T18:39:43.801Z,5.90
2019-04-11T18:44:39.726Z,4.60
2019-04-11T18:49:35.645Z,4.53
2019-04-11T18:54:34.148Z,4.50
2019-04-11T18:59:33.815Z,4.70
2019-04-11T19:04:32.763Z,4.80
2019-04-11T19:09:26.030Z,6.07
2019-04-11T19:14:24.558Z,5.50
2019-04-11T19:19:19.795Z,5.87
2019-04-11T19:24:16.032Z,4.90
2019-04-11T19:29:11.963Z,4.53
2019-04-11T19:34:08.905Z,5.40
2019-04-11T19:39:06.829Z,4.80
2019-04-11T19:44:03.059Z,4.90
2019-04-11T19:48:59.477Z,5.43
2019-04-11T19:53:55.717Z,5.23
2019-04-11T19:58:51.666Z,5.57
2019-04-11T20:03:47.584Z,4.67
2019-04-11T20:08:43.545Z,7.00
2019-04-11T20:13:39.471Z,6.97
2019-04-11T20:18:35.395Z,4.50
2019-04-11T20:23:31.334Z,16.60
2019-04-11T20:28:27.233Z,5.00
2019-04-11T20:33:27.457Z,6.37
2019-04-11T20:38:20.996Z,3.93
2019-04-11T20:43:16.930Z,4.00
2019-04-11T20:48:12.854Z,3.70
2019-04-11T20:53:12.930Z,3.30
2019-04-11T20:58:09.914Z,2.80
2019-04-11T21:03:04.477Z,3.53
2019-04-11T21:08:02.971Z,2.77
2019-04-11T21:12:58.252Z,3.07
2019-04-11T21:17:56.128Z,9.33
2019-04-11T21:22:53.918Z,3.67
2019-04-11T21:27:49.929Z,2.47
2019-04-11T21:32:45.857Z,3.20
2019-04-11T21:37:41.798Z,2.37
2019-04-11T21:42:37.800Z,3.20
2019-04-11T21:47:36.898Z,2.93
2019-04-11T21:52:32.299Z,2.33
2019-04-11T21:57:28.510Z,3.07
2019-04-11T22:02:24.908Z,5.37
2019-04-11T22:07:20.956Z,5.63
2019-04-11T22:12:16.883Z,2.50
2019-04-11T22:17:15.257Z,3.93
2019-04-11T22:22:10.739Z,2.60
2019-04-11T22:27:06.672Z,1.80
2019-04-11T22:32:02.801Z,2.53
2019-04-11T22:36:59.953Z,1.93
2019-04-11T22:41:56.554Z,1.90
2019-04-11T22:46:52.582Z,2.53
2019-04-11T22:51:48.551Z,2.07
2019-04-11T22:56:44.560Z,2.40
2019-04-11T23:01:41.389Z,2.00
2019-04-11T23:06:37.366Z,2.13
2019-04-11T23:11:33.413Z,2.37
2019-04-11T23:16:29.342Z,3.10
2019-04-11T23:21:25.337Z,2.43
2019-04-11T23:26:21.422Z,2.47
2019-04-11T23:31:19.729Z,1.73
2019-04-11T23:36:15.384Z,1.97
2019-04-11T23:41:11.643Z,2.60
2019-04-11T23:46:07.579Z,1.80
2019-04-11T23:51:03.577Z,1.77
2019-04-11T23:56:00.133Z,1.90
